Time;durP1;ratioP1;P1;durP2;ratioP2;P2;SDS_P1;SDS_P2;PMS_P1;PMS_P2;Temp;Humidity;BMP_temperature;BMP_pressure;BME280_temperature;BME280_humidity;BME280_pressure;Samples;Min_cycle;Max_cycle;Signal;HPM_P1;HPM_P2
2023/06/15 00:01:05;;;;;;;9.00;3.30;;;;;;;14.58;81.86;100114.69;109537;1254;74314;-66
2023/06/15 00:03:51;;;;;;;9.70;3.30;;;;;;;14.57;81.75;100113.36;109281;1256;57703;-69
2023/06/15 00:06:38;;;;;;;10.70;3.60;;;;;;;14.58;82.27;100116.91;109280;1254;60202;-66
2023/06/15 00:09:25;;;;;;;8.70;3.70;;;;;;;14.58;82.06;100117.28;109317;1254;71952;-66
2023/06/15 00:12:11;;;;;;;10.20;3.40;;;;;;;14.58;81.86;100112.44;109239;1255;66659;-68
2023/06/15 00:14:58;;;;;;;8.10;3.70;;;;;;;14.58;81.88;100111.02;109143;1254;72704;-66
2023/06/15 00:17:46;;;;;;;8.90;3.70;;;;;;;14.56;81.75;100114.02;109209;1262;57831;-66
2023/06/15 00:20:34;;;;;;;8.80;3.60;;;;;;;14.55;81.89;100116.11;109217;1254;58964;-68
2023/06/15 00:23:26;;;;;;;9.80;3.70;;;;;;;14.53;82.48;100120.05;109263;1254;71932;-69
2023/06/15 00:26:13;;;;;;;8.30;3.30;;;;;;;14.49;82.74;100120.92;109190;1260;69197;-66
2023/06/15 00:29:00;;;;;;;8.60;3.40;;;;;;;14.44;82.97;100117.98;109165;1256;72722;-68
2023/06/15 00:31:47;;;;;;;9.60;3.80;;;;;;;14.42;83.14;100116.40;109159;1254;59681;-66
2023/06/15 00:34:34;;;;;;;10.10;3.80;;;;;;;14.41;83.33;100117.23;109247;1255;59252;-67
2023/06/15 00:37:21;;;;;;;8.10;3.60;;;;;;;14.38;83.11;100112.33;109215;1254;72081;-67
2023/06/15 00:40:09;;;;;;;8.40;3.30;;;;;;;14.36;82.86;100119.09;109224;1254;66464;-66
2023/06/15 00:42:55;;;;;;;9.50;3.70;;;;;;;14.35;83.12;100119.95;109376;1254;72749;-67
2023/06/15 00:45:42;;;;;;;10.20;4.20;;;;;;;14.33;83.10;100114.92;109290;1257;57967;-68
2023/06/15 00:48:30;;;;;;;9.00;3.80;;;;;;;14.30;83.46;100113.34;109127;1254;61474;-67
2023/06/15 00:51:17;;;;;;;8.20;3.30;;;;;;;14.30;83.41;100113.94;109305;1254;73287;-68
2023/06/15 00:54:05;;;;;;;9.80;3.60;;;;;;;14.26;83.46;100111.46;109237;1253;67647;-68
2023/06/15 00:56:52;;;;;;;6.80;3.10;;;;;;;14.23;83.52;100110.31;109211;1254;73024;-68
2023/06/15 00:59:39;;;;;;;9.00;3.60;;;;;;;14.21;83.49;100108.34;109283;1256;59429;-67
2023/06/15 01:02:29;;;;;;;10.00;3.80;;;;;;;14.18;83.65;100110.02;109247;1254;57749;-66
2023/06/15 01:05:17;;;;;;;9.90;4.10;;;;;;;14.17;83.60;100106.73;109232;1254;72307;-66
2023/06/15 01:08:08;;;;;;;10.10;3.70;;;;;;;14.15;83.59;100105.33;109405;1254;68970;-67
2023/06/15 01:10:57;;;;;;;11.40;4.10;;;;;;;14.08;83.66;100100.45;109344;1256;71603;-68
2023/06/15 01:13:45;;;;;;;9.10;4.30;;;;;;;14.05;84.04;100102.32;109253;1254;57718;-66
2023/06/15 01:16:40;;;;;;;10.10;4.00;;;;;;;13.99;84.75;100107.67;109263;1255;59998;-68
2023/06/15 01:19:57;;;;;;;9.90;4.10;;;;;;;13.93;84.65;100106.10;109484;1256;70765;-68
2023/06/15 01:23:05;;;;;;;10.90;4.20;;;;;;;13.88;84.97;100108.67;109351;1254;66514;-66
2023/06/15 01:26:11;;;;;;;9.70;4.40;;;;;;;13.86;85.18;100100.85;109325;1254;71382;-65
2023/06/15 01:28:59;;;;;;;8.00;3.90;;;;;;;13.86;85.45;100105.60;109315;1257;57857;-66
2023/06/15 01:31:52;;;;;;;8.60;4.20;;;;;;;13.86;85.80;100099.80;109382;1257;59099;-66
2023/06/15 01:34:38;;;;;;;13.00;4.20;;;;;;;13.85;85.77;100096.52;109250;1254;72948;-67
2023/06/15 01:37:25;;;;;;;9.40;4.10;;;;;;;13.83;86.11;100092.76;109384;1254;65349;-66
2023/06/15 01:40:13;;;;;;;10.30;4.10;;;;;;;13.82;86.11;100098.36;109216;1259;71630;-68
2023/06/15 01:43:00;;;;;;;11.00;3.90;;;;;;;13.80;86.46;100100.45;109224;1254;57944;-66
2023/06/15 01:45:49;;;;;;;10.10;4.20;;;;;;;13.78;86.69;100104.36;109220;1256;60474;-70
2023/06/15 01:48:37;;;;;;;9.70;4.30;;;;;;;13.76;86.70;100097.45;109329;1255;70941;-68
2023/06/15 01:51:25;;;;;;;8.70;3.70;;;;;;;13.74;86.74;100095.34;109248;1254;68433;-66
2023/06/15 01:54:12;;;;;;;9.70;4.30;;;;;;;13.72;86.98;100098.49;109337;1254;72409;-68
2023/06/15 01:56:59;;;;;;;10.70;4.60;;;;;;;13.69;87.03;100095.73;109284;1255;57996;-69
2023/06/15 01:59:47;;;;;;;9.30;4.60;;;;;;;13.68;87.46;100099.64;109159;1255;58847;-67
2023/06/15 02:02:34;;;;;;;10.90;4.20;;;;;;;13.67;87.95;100093.30;109263;1254;73281;-68
2023/06/15 02:05:21;;;;;;;9.20;4.00;;;;;;;13.65;88.12;100089.70;109202;1256;66360;-68
2023/06/15 02:08:12;;;;;;;10.30;4.50;;;;;;;13.67;88.20;100088.33;109196;1254;72789;-68
2023/06/15 02:10:59;;;;;;;11.00;4.80;;;;;;;13.67;88.03;100085.20;109174;1254;57846;-67
2023/06/15 02:13:45;;;;;;;8.40;4.20;;;;;;;13.68;88.42;100079.08;109152;1254;59064;-68
2023/06/15 02:16:33;;;;;;;8.70;4.50;;;;;;;13.69;88.18;100077.44;109200;1254;72096;-68
2023/06/15 02:19:21;;;;;;;10.60;4.40;;;;;;;13.71;88.46;100076.11;109212;1254;66426;-66
2023/06/15 02:22:08;;;;;;;13.00;4.60;;;;;;;13.75;88.05;100071.15;109116;1254;72540;-67
2023/06/15 02:24:54;;;;;;;9.60;4.70;;;;;;;13.78;87.94;100073.89;109258;1254;59382;-65
2023/06/15 02:27:41;;;;;;;11.10;4.50;;;;;;;13.81;87.89;100068.31;109246;1254;58414;-65
2023/06/15 02:30:28;;;;;;;10.30;4.20;;;;;;;13.84;87.66;100069.12;109234;1254;72140;-65
2023/06/15 02:33:15;;;;;;;11.10;4.40;;;;;;;13.87;87.64;100066.54;109350;1254;66932;-65
2023/06/15 02:36:02;;;;;;;12.90;4.90;;;;;;;13.88;87.37;100065.14;109148;1257;74035;-71
2023/06/15 02:38:49;;;;;;;9.30;4.10;;;;;;;13.91;87.57;100062.58;109080;1255;59310;-67
2023/06/15 02:41:37;;;;;;;9.30;4.60;;;;;;;13.93;87.26;100061.98;109308;1254;59056;-65
2023/06/15 02:44:24;;;;;;;10.70;4.20;;;;;;;13.97;87.21;100061.31;109063;1254;73078;-65
2023/06/15 02:47:11;;;;;;;8.50;3.90;;;;;;;14.01;87.05;100063.84;109300;1254;67728;-67
2023/06/15 02:49:59;;;;;;;9.80;4.50;;;;;;;14.06;86.84;100060.70;109182;1254;73486;-69
2023/06/15 02:52:47;;;;;;;10.70;4.20;;;;;;;14.11;86.60;100066.80;109113;1254;57063;-68
2023/06/15 02:55:34;;;;;;;9.80;4.20;;;;;;;14.14;86.31;100066.00;109159;1254;61168;-67
2023/06/15 02:58:24;;;;;;;9.30;4.30;;;;;;;14.18;86.13;100068.84;109168;1256;72090;-67
2023/06/15 03:01:37;;;;;;;10.70;4.10;;;;;;;14.23;85.72;100073.52;109449;1254;67734;-68
2023/06/15 03:04:24;;;;;;;9.60;4.60;;;;;;;14.28;85.73;100073.82;109257;1254;71406;-63
2023/06/15 03:07:16;;;;;;;8.90;4.70;;;;;;;14.33;85.29;100074.97;109251;1254;57911;-67
2023/06/15 03:10:20;;;;;;;10.60;4.40;;;;;;;14.40;84.70;100071.26;109450;1254;58867;-66
2023/06/15 03:13:07;;;;;;;9.20;4.50;;;;;;;14.42;84.63;100074.27;109274;1254;70611;-64
2023/06/15 03:15:53;;;;;;;8.90;4.00;;;;;;;14.44;84.51;100080.46;109215;1257;66928;-65
2023/06/15 03:18:40;;;;;;;8.20;3.90;;;;;;;14.47;84.46;100079.16;109215;1259;72662;-65
2023/06/15 03:21:29;;;;;;;8.80;4.10;;;;;;;14.49;84.63;100079.31;109153;1254;60436;-67
2023/06/15 03:24:17;;;;;;;10.00;4.40;;;;;;;14.53;84.47;100078.95;109198;1255;60088;-65
2023/06/15 03:27:06;;;;;;;11.20;4.00;;;;;;;14.56;84.47;100073.85;109338;1255;71103;-67
2023/06/15 03:29:54;;;;;;;10.00;4.00;;;;;;;14.59;84.24;100076.08;109317;1259;65820;-64
2023/06/15 03:32:41;;;;;;;8.40;4.10;;;;;;;14.61;84.20;100076.56;109160;1254;71764;-67
2023/06/15 03:35:28;;;;;;;8.60;4.00;;;;;;;14.61;84.34;100071.77;109252;1254;59061;-70
2023/06/15 03:38:16;;;;;;;9.30;3.80;;;;;;;14.66;84.19;100073.48;109227;1254;59054;-67
2023/06/15 03:41:03;;;;;;;9.20;4.20;;;;;;;14.70;84.26;100079.00;109258;1254;71961;-69
2023/06/15 03:43:50;;;;;;;12.60;4.10;;;;;;;14.75;84.08;100080.47;109190;1254;67918;-67
2023/06/15 03:46:37;;;;;;;12.40;4.20;;;;;;;14.79;84.01;100083.11;109126;1255;72868;-65
2023/06/15 03:49:23;;;;;;;11.30;4.00;;;;;;;14.85;83.97;100079.94;109067;1254;57923;-66
2023/06/15 03:52:11;;;;;;;8.70;4.20;;;;;;;14.88;83.74;100084.24;109259;1254;58937;-66
2023/06/15 03:55:00;;;;;;;8.80;3.80;;;;;;;14.91;83.53;100085.04;109269;1259;72016;-65
2023/06/15 03:57:47;;;;;;;7.70;3.70;;;;;;;14.96;83.74;100085.81;109263;1254;67810;-66
2023/06/15 04:00:34;;;;;;;10.00;4.00;;;;;;;15.02;83.57;100085.31;109239;1254;73621;-63
2023/06/15 04:03:20;;;;;;;8.60;3.60;;;;;;;15.07;83.30;100081.94;109147;1257;58549;-67
2023/06/15 04:06:07;;;;;;;8.60;3.60;;;;;;;15.10;83.37;100081.64;109280;1254;60356;-66
2023/06/15 04:08:53;;;;;;;7.70;3.50;;;;;;;15.13;83.59;100083.06;109278;1254;72128;-66
2023/06/15 04:11:42;;;;;;;9.20;3.40;;;;;;;15.17;83.56;100089.20;109155;1254;66661;-65
2023/06/15 04:14:30;;;;;;;10.40;4.00;;;;;;;15.17;83.34;100089.93;109310;1254;71452;-67
2023/06/15 04:17:18;;;;;;;9.90;3.70;;;;;;;15.19;83.53;100090.83;109118;1254;59540;-65
2023/06/15 04:20:06;;;;;;;10.60;4.00;;;;;;;15.22;83.56;100091.06;109463;1254;60133;-63
2023/06/15 04:22:55;;;;;;;10.20;3.70;;;;;;;15.24;83.45;100085.43;109125;1254;72259;-64
2023/06/15 04:25:42;;;;;;;7.70;3.30;;;;;;;15.27;83.39;100085.22;109122;1260;66786;-65
2023/06/15 04:28:33;;;;;;;10.10;3.90;;;;;;;15.25;83.79;100090.73;109046;1254;72494;-66
2023/06/15 04:31:21;;;;;;;10.10;3.90;;;;;;;15.23;83.75;100092.69;109197;1254;56843;-68
2023/06/15 04:34:11;;;;;;;8.40;4.00;;;;;;;15.23;83.65;100087.55;109340;1253;59038;-64
2023/06/15 04:37:00;;;;;;;8.60;3.70;;;;;;;15.23;83.71;100083.91;109340;1254;70664;-64
2023/06/15 04:39:48;;;;;;;8.90;3.80;;;;;;;15.25;83.46;100077.64;109539;1254;68102;-65
2023/06/15 04:42:37;;;;;;;10.10;3.40;;;;;;;15.28;83.66;100073.14;109548;1253;71725;-70
2023/06/15 04:45:27;;;;;;;9.90;4.00;;;;;;;15.35;83.52;100071.17;109236;1254;57890;-65
2023/06/15 04:48:13;;;;;;;10.50;3.90;;;;;;;15.41;83.19;100066.48;109179;1254;59040;-70
2023/06/15 04:51:01;;;;;;;9.00;3.90;;;;;;;15.46;83.12;100062.95;109337;1253;70948;-70
2023/06/15 04:53:48;;;;;;;11.50;4.20;;;;;;;15.49;83.16;100060.17;109263;1254;66512;-73
2023/06/15 04:56:34;;;;;;;8.60;3.70;;;;;;;15.52;83.02;100059.69;109476;1254;72612;-73
2023/06/15 04:59:21;;;;;;;10.20;4.00;;;;;;;15.55;82.66;100058.52;109222;1253;59660;-74
2023/06/15 05:02:08;;;;;;;10.90;3.90;;;;;;;15.57;83.02;100060.42;109280;1254;60132;-74
2023/06/15 05:04:57;;;;;;;11.80;4.10;;;;;;;15.60;83.04;100064.78;109310;1253;70641;-70
2023/06/15 05:07:45;;;;;;;11.70;3.90;;;;;;;15.64;82.68;100073.37;109321;1253;67747;-71
2023/06/15 05:10:32;;;;;;;8.90;3.50;;;;;;;15.68;82.61;100076.53;109360;1254;73720;-70
2023/06/15 05:13:34;;;;;;;9.40;3.90;;;;;;;16.21;82.38;100073.79;109060;1256;59157;-68
2023/06/15 05:16:22;;;;;;;9.10;3.80;;;;;;;17.16;79.46;100067.10;109170;1253;59052;-70
2023/06/15 05:19:09;;;;;;;8.40;4.00;;;;;;;17.75;76.56;100060.23;109177;1254;72119;-67
2023/06/15 05:22:01;;;;;;;9.60;3.70;;;;;;;18.57;72.89;100064.98;109249;1254;67563;-68
2023/06/15 05:24:51;;;;;;;8.60;3.90;;;;;;;18.82;70.76;100070.19;109326;1254;70572;-69
2023/06/15 05:27:42;;;;;;;12.20;3.90;;;;;;;18.94;69.98;100075.77;109262;1253;57157;-73
2023/06/15 05:30:29;;;;;;;11.90;4.20;;;;;;;19.06;69.21;100079.34;109261;1253;59088;-67
2023/06/15 05:33:17;;;;;;;11.50;3.80;;;;;;;18.97;68.90;100078.36;109282;1253;72132;-67
2023/06/15 05:36:04;;;;;;;9.30;3.80;;;;;;;18.77;69.11;100078.42;109387;1253;67874;-68
2023/06/15 05:39:11;;;;;;;10.00;4.00;;;;;;;18.51;69.42;100076.29;109358;1253;71478;-64
2023/06/15 05:41:58;;;;;;;7.80;3.80;;;;;;;18.33;69.94;100077.71;109441;1254;56862;-68
2023/06/15 05:44:46;;;;;;;10.00;3.80;;;;;;;18.22;69.93;100076.11;109171;1253;59170;-69
2023/06/15 05:47:35;;;;;;;11.10;3.60;;;;;;;18.02;70.34;100072.81;109285;1253;71083;-70
2023/06/15 05:50:26;;;;;;;10.30;3.60;;;;;;;17.81;70.66;100065.23;109326;1254;68055;-66
2023/06/15 05:53:13;;;;;;;10.10;4.10;;;;;;;17.62;71.34;100069.39;109154;1254;71859;-67
2023/06/15 05:56:00;;;;;;;9.50;3.50;;;;;;;17.46;71.86;100074.70;109410;1253;58000;-66
2023/06/15 05:58:49;;;;;;;9.50;3.80;;;;;;;17.28;72.42;100077.44;109250;1253;59175;-71
2023/06/15 06:01:35;;;;;;;8.50;3.80;;;;;;;17.13;73.09;100087.13;109386;1257;72229;-70
2023/06/15 06:04:22;;;;;;;10.60;4.00;;;;;;;17.00;73.63;100096.52;109224;1254;67908;-67
2023/06/15 06:07:10;;;;;;;11.80;4.30;;;;;;;16.91;74.31;100095.55;109287;1253;72476;-69
2023/06/15 06:09:58;;;;;;;10.10;3.80;;;;;;;16.81;74.67;100103.80;109369;1253;57871;-69
2023/06/15 06:12:44;;;;;;;11.70;4.60;;;;;;;16.71;75.23;100117.60;109248;1253;58739;-67
2023/06/15 06:15:33;;;;;;;9.80;4.20;;;;;;;16.58;75.88;100128.27;109265;1253;71405;-66
2023/06/15 06:18:23;;;;;;;11.80;4.40;;;;;;;16.39;76.76;100138.19;109186;1256;67675;-69
2023/06/15 06:21:10;;;;;;;14.30;4.60;;;;;;;16.15;78.67;100144.67;109127;1257;72735;-70
2023/06/15 06:24:00;;;;;;;13.70;5.00;;;;;;;15.95;79.61;100147.60;109015;1262;59234;-72
2023/06/15 06:26:47;;;;;;;13.20;4.50;;;;;;;15.77;80.35;100145.55;108972;1256;58833;-69
2023/06/15 06:29:35;;;;;;;11.70;4.30;;;;;;;15.59;81.25;100143.27;109078;1257;72134;-71
2023/06/15 06:32:22;;;;;;;11.80;4.60;;;;;;;15.44;81.83;100151.80;109122;1256;67922;-72
2023/06/15 06:35:10;;;;;;;11.30;4.70;;;;;;;15.32;82.79;100159.44;109133;1256;72359;-74
2023/06/15 06:37:57;;;;;;;13.20;5.50;;;;;;;15.22;83.23;100155.19;109029;1256;59312;-72
2023/06/15 06:40:44;;;;;;;11.50;5.00;;;;;;;15.18;83.99;100153.27;109104;1256;60187;-74
2023/06/15 06:43:30;;;;;;;12.50;5.50;;;;;;;15.09;85.38;100135.54;109104;1256;72240;-74
2023/06/15 06:46:17;;;;;;;13.90;5.10;;;;;;;15.03;86.43;100130.23;109135;1256;67622;-74
2023/06/15 06:49:04;;;;;;;11.30;5.30;;;;;;;14.94;86.88;100123.10;109251;1252;72654;-73
2023/06/15 06:51:50;;;;;;;12.30;5.80;;;;;;;14.90;88.06;100123.17;108989;1256;283551;-74
2023/06/15 06:54:38;;;;;;;18.20;6.10;;;;;;;14.89;88.61;100107.92;109109;1256;61087;-75
2023/06/15 06:57:24;;;;;;;15.60;5.90;;;;;;;14.91;88.87;100087.20;109265;1254;72582;-72
2023/06/15 07:00:17;;;;;;;13.30;6.10;;;;;;;14.94;89.56;100065.62;109184;1254;67863;-73
2023/06/15 07:03:04;;;;;;;13.50;5.70;;;;;;;15.04;90.55;100053.30;109411;1254;71346;-74
2023/06/15 07:05:55;;;;;;;12.60;5.90;;;;;;;15.21;91.01;100055.70;109252;1254;59680;-73
2023/06/15 07:08:41;;;;;;;17.20;6.00;;;;;;;15.45;90.58;100054.46;109197;1256;60399;-71
2023/06/15 07:11:29;;;;;;;11.80;5.50;;;;;;;15.77;89.19;100055.94;109139;1254;71255;-76
2023/06/15 07:14:15;;;;;;;11.60;4.80;;;;;;;16.08;87.05;100056.69;109174;1254;67710;-76
2023/06/15 07:17:02;;;;;;;9.70;4.70;;;;;;;16.20;86.57;100052.05;109312;1253;74093;-72
2023/06/15 07:19:48;;;;;;;15.30;5.40;;;;;;;16.25;86.92;100055.72;109294;1253;58004;-76
2023/06/15 07:22:35;;;;;;;10.90;5.30;;;;;;;16.28;86.69;100062.89;109416;1253;58927;-74
2023/06/15 07:25:21;;;;;;;12.10;5.00;;;;;;;16.22;85.52;100071.38;109577;1253;72071;-75
2023/06/15 07:28:08;;;;;;;11.70;5.50;;;;;;;16.14;85.09;100070.67;109222;1253;66519;-70
2023/06/15 07:30:54;;;;;;;11.60;4.70;;;;;;;16.08;84.74;100068.33;109335;1253;70565;-73
2023/06/15 07:33:41;;;;;;;11.90;5.50;;;;;;;16.01;84.47;100067.17;109433;1253;57997;-70
2023/06/15 07:36:30;;;;;;;10.30;5.40;;;;;;;15.95;84.66;100062.83;109448;1253;58777;-71
2023/06/15 07:39:17;;;;;;;13.10;5.20;;;;;;;15.98;84.98;100062.11;109567;1253;70981;-72
2023/06/15 07:42:04;;;;;;;10.50;4.60;;;;;;;16.06;84.74;100063.48;109492;1254;66598;-71
2023/06/15 07:44:50;;;;;;;10.80;4.90;;;;;;;16.12;84.92;100065.75;109572;1253;73837;-73
2023/06/15 07:47:37;;;;;;;9.90;5.00;;;;;;;16.21;84.77;100068.92;109472;1252;59728;-74
2023/06/15 07:50:28;;;;;;;11.20;5.60;;;;;;;16.33;84.92;100069.48;109328;1253;61140;-74
2023/06/15 07:53:15;;;;;;;10.70;5.10;;;;;;;16.42;85.19;100064.16;109325;1254;72045;-75
2023/06/15 07:56:01;;;;;;;10.60;5.50;;;;;;;16.51;85.47;100085.58;109552;1253;68208;-75
2023/06/15 07:58:48;;;;;;;12.00;5.90;;;;;;;16.72;85.38;100086.91;109339;1253;71249;-73
2023/06/15 08:01:34;;;;;;;10.80;5.00;;;;;;;16.90;83.89;100092.17;109444;1254;58079;-73
2023/06/15 08:04:21;;;;;;;11.00;5.30;;;;;;;17.06;83.26;100095.02;109230;1253;59304;-74
2023/06/15 08:07:07;;;;;;;10.20;5.50;;;;;;;17.19;83.03;100088.33;109551;1253;71349;-75
2023/06/15 08:09:56;;;;;;;10.00;4.60;;;;;;;17.26;83.07;100081.47;109207;1253;67770;-75
2023/06/15 08:12:43;;;;;;;10.50;4.80;;;;;;;17.27;81.75;100068.09;109487;1253;73677;-78
2023/06/15 08:15:30;;;;;;;9.50;5.00;;;;;;;17.33;81.20;100066.31;109206;1253;56927;-73
2023/06/15 08:18:17;;;;;;;10.40;4.60;;;;;;;17.40;80.95;100064.63;109476;1253;60323;-75
2023/06/15 08:21:05;;;;;;;9.20;4.80;;;;;;;17.51;80.01;100055.32;109550;1253;72101;-73
2023/06/15 08:23:51;;;;;;;9.90;4.90;;;;;;;17.76;79.98;100052.33;109558;1253;66962;-74
2023/06/15 08:26:38;;;;;;;10.30;5.00;;;;;;;18.17;78.17;100054.73;109410;1253;71412;-75
2023/06/15 08:29:25;;;;;;;8.70;4.20;;;;;;;18.57;76.62;100051.92;109497;1253;57754;-73
2023/06/15 08:32:13;;;;;;;13.10;4.50;;;;;;;18.77;74.96;100056.19;109223;1253;58752;-70
2023/06/15 08:35:00;;;;;;;10.20;4.50;;;;;;;18.87;74.75;100059.73;109570;1253;72277;-74
2023/06/15 08:37:46;;;;;;;11.20;4.40;;;;;;;19.02;74.31;100044.23;109235;1253;67940;-74
2023/06/15 08:40:34;;;;;;;9.10;4.00;;;;;;;19.06;73.81;100043.40;109220;1253;72947;-74
2023/06/15 08:43:22;;;;;;;9.20;4.00;;;;;;;19.07;72.83;100041.27;109392;1254;56987;-71
2023/06/15 08:46:10;;;;;;;9.40;3.80;;;;;;;19.15;72.35;100042.38;109169;1254;58873;-73
2023/06/15 08:48:57;;;;;;;9.00;3.90;;;;;;;19.33;72.34;100043.52;109290;1254;70017;-73
2023/06/15 08:51:45;;;;;;;12.40;4.20;;;;;;;19.54;70.66;100041.79;109199;1254;67848;-74
2023/06/15 08:54:32;;;;;;;8.70;3.20;;;;;;;19.78;69.05;100047.52;109164;1254;72520;-76
2023/06/15 08:57:20;;;;;;;8.90;3.80;;;;;;;19.92;68.04;100052.90;109267;1254;57825;-73
2023/06/15 09:00:10;;;;;;;8.60;4.00;;;;;;;20.17;68.02;100043.59;109226;1254;58835;-74
2023/06/15 09:03:00;;;;;;;8.20;3.20;;;;;;;20.44;66.15;100035.66;109210;1254;71206;-73
2023/06/15 09:05:48;;;;;;;7.80;3.30;;;;;;;20.66;65.29;100041.48;109436;1254;66622;-73
2023/06/15 09:08:35;;;;;;;17.60;7.90;;;;;;;20.84;64.33;100043.17;109254;1254;71162;-75
2023/06/15 09:11:23;;;;;;;12.90;4.90;;;;;;;21.08;64.34;100039.15;109140;1254;59372;-73
2023/06/15 09:14:11;;;;;;;9.80;4.10;;;;;;;21.74;61.97;100040.17;109274;1254;59031;-73
2023/06/15 09:16:57;;;;;;;7.80;3.60;;;;;;;22.43;57.59;100039.80;109313;1254;72400;-72
2023/06/15 09:19:44;;;;;;;9.30;3.20;;;;;;;22.80;56.05;100036.86;109614;1254;66600;-72
2023/06/15 09:22:40;;;;;;;8.30;3.50;;;;;;;23.27;55.75;100035.85;109347;1254;72587;-72
2023/06/15 09:25:32;;;;;;;8.00;3.20;;;;;;;23.53;54.27;100039.60;109271;1254;56820;-73
2023/06/15 09:28:27;;;;;;;9.10;3.50;;;;;;;23.68;53.58;100046.20;109273;1254;58835;-71
2023/06/15 09:31:43;;;;;;;7.20;3.30;;;;;;;23.95;53.22;100043.83;109249;1255;70960;-74
2023/06/15 09:34:31;;;;;;;7.20;2.80;;;;;;;24.95;49.17;100039.52;109243;1254;67755;-73
2023/06/15 09:37:18;;;;;;;8.20;3.20;;;;;;;25.99;46.40;100031.05;109225;1254;72521;-77
2023/06/15 09:40:07;;;;;;;8.20;3.00;;;;;;;26.93;43.95;100023.71;109177;1254;56891;-76
2023/06/15 09:42:56;;;;;;;9.20;3.00;;;;;;;27.27;41.58;100027.88;109323;1254;60391;-74
2023/06/15 09:45:54;;;;;;;10.50;3.00;;;;;;;26.98;41.22;100023.50;109155;1254;72209;-73
2023/06/15 09:48:43;;;;;;;12.90;2.90;;;;;;;26.77;41.66;100024.06;109259;1256;67777;-76
2023/06/15 09:51:35;;;;;;;9.10;3.20;;;;;;;26.22;41.98;100023.92;109211;1253;70302;-72
2023/06/15 09:54:28;;;;;;;8.10;3.00;;;;;;;25.65;43.07;100026.72;109395;1254;57749;-72
2023/06/15 09:57:19;;;;;;;7.90;3.10;;;;;;;25.12;43.60;100022.38;109476;1254;59032;-76
2023/06/15 10:00:07;;;;;;;9.30;3.20;;;;;;;24.60;44.78;100021.65;109172;1254;72161;-73
2023/06/15 10:03:01;;;;;;;8.10;3.00;;;;;;;23.97;46.37;100021.34;109240;1254;66889;-75
2023/06/15 10:05:54;;;;;;;8.20;3.50;;;;;;;23.37;47.58;100019.88;109364;1254;72661;-73
2023/06/15 10:08:43;;;;;;;9.20;3.30;;;;;;;22.59;48.89;100021.33;109216;1255;57109;-74
2023/06/15 10:11:31;;;;;;;8.30;3.20;;;;;;;22.06;50.35;100018.54;109223;1254;59874;-72
2023/06/15 10:14:59;;;;;;;8.10;3.20;;;;;;;21.70;51.73;100010.91;109221;1254;72472;-72
2023/06/15 10:17:52;;;;;;;12.20;3.80;;;;;;;21.58;52.87;100008.24;108931;1260;68405;-73
2023/06/15 10:20:39;;;;;;;8.00;3.00;;;;;;;21.76;53.19;100002.88;108819;1260;71070;-74
2023/06/15 10:23:29;;;;;;;8.10;3.40;;;;;;;21.98;51.78;100005.41;108863;1260;56868;-71
2023/06/15 10:26:30;;;;;;;8.70;3.50;;;;;;;21.98;52.18;99998.55;108944;1260;58901;-73
2023/06/15 10:29:36;;;;;;;8.50;3.30;;;;;;;22.02;52.74;99993.02;108884;1260;70752;-73
2023/06/15 10:32:33;;;;;;;10.00;3.70;;;;;;;22.09;52.12;99989.55;108939;1260;66363;-77
2023/06/15 10:35:27;;;;;;;10.90;3.70;;;;;;;22.30;52.69;99981.42;108906;1260;72587;-76
2023/06/15 10:38:45;;;;;;;9.10;4.00;;;;;;;23.57;50.85;99976.28;108860;1260;56985;-76
2023/06/15 10:41:33;;;;;;;9.60;3.50;;;;;;;25.59;45.69;99980.51;108916;1260;58810;-74
2023/06/15 10:44:20;;;;;;;8.80;3.10;;;;;;;27.01;41.77;99979.48;108874;1260;72013;-75
2023/06/15 10:47:13;;;;;;;8.20;3.30;;;;;;;28.05;39.80;99977.08;108879;1260;68623;-73
2023/06/15 10:49:59;;;;;;;7.10;3.00;;;;;;;28.80;36.95;99976.38;108912;1260;72708;-74
2023/06/15 10:53:01;;;;;;;8.00;3.20;;;;;;;29.48;36.10;99972.02;109097;1254;57425;-76
2023/06/15 10:55:52;;;;;;;9.60;3.70;;;;;;;30.36;34.51;99972.36;109442;1254;59618;-75
2023/06/15 10:59:07;;;;;;;8.80;2.80;;;;;;;31.09;32.96;99968.73;109224;1254;72812;-73
2023/06/15 11:01:56;;;;;;;9.00;3.30;;;;;;;31.42;32.51;99976.58;109265;1254;66539;-75
2023/06/15 11:04:51;;;;;;;10.10;2.80;;;;;;;31.77;32.17;99975.76;109091;1254;70892;-72
2023/06/15 11:07:41;;;;;;;8.30;3.30;;;;;;;31.16;32.68;99980.41;109310;1254;57499;-74
2023/06/15 11:10:31;;;;;;;8.30;3.30;;;;;;;30.39;33.26;99976.12;109366;1254;60236;-74
2023/06/15 11:13:25;;;;;;;8.10;3.10;;;;;;;29.54;34.00;99967.73;109449;1254;72685;-75
2023/06/15 11:16:14;;;;;;;8.40;3.00;;;;;;;28.78;35.49;99970.65;109274;1254;67722;-70
2023/06/15 11:19:11;;;;;;;8.10;3.20;;;;;;;28.26;36.49;99973.77;109153;1256;71277;-74
2023/06/15 11:22:05;;;;;;;7.50;3.00;;;;;;;27.78;37.77;99984.08;109427;1254;57032;-71
2023/06/15 11:24:55;;;;;;;12.30;3.30;;;;;;;27.59;38.23;99976.89;109213;1254;59531;-75
2023/06/15 11:27:43;;;;;;;7.90;3.20;;;;;;;27.39;38.45;99973.02;109130;1256;71002;-77
2023/06/15 11:30:31;;;;;;;9.10;3.20;;;;;;;27.17;39.00;99962.85;109141;1254;66447;-74
2023/06/15 11:33:36;;;;;;;8.60;3.30;;;;;;;27.13;39.32;99963.95;109225;1254;72593;-73
2023/06/15 11:36:24;;;;;;;9.10;3.40;;;;;;;27.01;39.44;99962.05;109255;1254;57885;-72
2023/06/15 11:39:22;;;;;;;11.30;3.30;;;;;;;26.92;40.12;99962.71;109041;1258;58862;-70
2023/06/15 11:42:08;;;;;;;8.20;3.30;;;;;;;26.61;40.39;99968.41;109031;1258;70397;-70
2023/06/15 11:44:55;;;;;;;9.40;3.20;;;;;;;26.47;40.05;99971.73;108999;1259;68548;-69
2023/06/15 11:47:41;;;;;;;8.10;2.90;;;;;;;26.27;40.26;99965.94;108985;1258;71150;-68
2023/06/15 11:50:32;;;;;;;8.70;3.50;;;;;;;26.13;41.01;99969.52;108937;1257;56991;-66
2023/06/15 11:53:20;;;;;;;7.60;3.50;;;;;;;25.81;41.99;99973.84;108938;1256;60219;-66
2023/06/15 11:56:14;;;;;;;10.00;3.60;;;;;;;25.35;43.33;99977.23;109101;1256;72177;-64
2023/06/15 11:59:02;;;;;;;9.20;3.40;;;;;;;24.75;43.14;99982.05;109122;1257;67718;-66
2023/06/15 12:01:50;;;;;;;8.00;3.80;;;;;;;24.03;44.40;99983.92;109032;1257;71298;-65
2023/06/15 12:04:37;;;;;;;10.90;3.70;;;;;;;23.58;46.14;99983.38;108851;1260;57720;-69
2023/06/15 12:07:24;;;;;;;8.70;3.60;;;;;;;23.19;47.39;99982.95;109067;1257;61228;-64
2023/06/15 12:10:24;;;;;;;10.20;3.80;;;;;;;22.99;48.34;99978.48;108892;1254;73505;-64
2023/06/15 12:13:15;;;;;;;7.90;3.70;;;;;;;22.99;48.32;99973.96;109134;1255;67768;-68
2023/06/15 12:16:03;;;;;;;10.80;3.40;;;;;;;22.99;48.45;99975.30;109193;1254;72579;-65
2023/06/15 12:19:04;;;;;;;10.90;4.20;;;;;;;22.77;49.75;99981.88;109119;1254;57432;-70
2023/06/15 12:21:59;;;;;;;10.00;3.40;;;;;;;22.27;49.62;99983.06;109071;1254;58791;-66
2023/06/15 12:24:48;;;;;;;12.90;3.70;;;;;;;21.83;49.41;99985.34;109111;1257;72974;-70
2023/06/15 12:27:49;;;;;;;9.60;3.50;;;;;;;21.57;50.38;99988.49;109115;1256;67764;-66
2023/06/15 12:30:38;;;;;;;10.10;3.50;;;;;;;21.31;50.92;99980.70;109104;1256;72746;-67
2023/06/15 12:33:39;;;;;;;8.50;3.30;;;;;;;21.08;51.22;99979.40;109206;1257;57986;-68
2023/06/15 12:36:28;;;;;;;8.70;3.40;;;;;;;20.98;52.12;99980.70;109330;1254;60016;-65
2023/06/15 12:39:15;;;;;;;9.10;3.60;;;;;;;20.96;52.04;99979.95;109415;1254;72051;-67
2023/06/15 12:42:03;;;;;;;11.40;3.70;;;;;;;21.06;52.43;99978.80;109310;1256;66440;-64
2023/06/15 12:44:50;;;;;;;10.70;3.70;;;;;;;21.23;52.52;99979.77;109051;1254;73611;-63
2023/06/15 12:47:38;;;;;;;9.30;3.80;;;;;;;21.29;52.57;99982.49;109376;1254;57689;-65
2023/06/15 12:50:28;;;;;;;11.20;3.80;;;;;;;21.24;52.84;99975.29;109408;1257;60061;-65
2023/06/15 12:53:19;;;;;;;10.00;4.40;;;;;;;21.15;53.23;99976.22;109398;1254;72788;-68
2023/06/15 12:56:06;;;;;;;11.90;3.50;;;;;;;21.21;53.38;99964.59;109227;1254;68031;-69